Time;durP1;ratioP1;P1;durP2;ratioP2;P2;SDS_P1;SDS_P2;PMS_P1;PMS_P2;Temp;Humidity;BMP_temperature;BMP_pressure;BME280_temperature;BME280_humidity;BME280_pressure;Samples;Min_cycle;Max_cycle;Signal;HPM_P1;HPM_P2
2021/09/18 05:37:08;;;;;;;61.78;25.52;;;;;;;15.67;85.14;93179.22;5113582;28;20063;-51
2021/09/18 05:39:33;;;;;;;59.92;26.95;;;;;;;15.70;86.29;93162.06;5114347;28;20436;-49
2021/09/18 05:41:59;;;;;;;66.38;25.40;;;;;;;15.65;86.92;93160.34;5108035;28;20023;-51
2021/09/18 05:44:24;;;;;;;60.05;26.83;;;;;;;15.66;87.62;93161.78;5106642;28;20027;-47
2021/09/18 05:46:50;;;;;;;65.18;24.48;;;;;;;15.82;88.12;93170.56;5111831;28;20504;-48
2021/09/18 05:49:15;;;;;;;76.78;27.00;;;;;;;15.83;87.66;93163.69;5111343;28;20553;-47
2021/09/18 05:51:41;;;;;;;66.82;25.23;;;;;;;15.77;88.28;93160.44;5111320;28;20032;-48
2021/09/18 05:54:07;;;;;;;73.75;26.98;;;;;;;15.79;89.01;93160.59;5111395;28;20114;-48
2021/09/18 05:56:32;;;;;;;60.45;24.52;;;;;;;15.90;88.92;93152.38;5109774;28;20058;-48
2021/09/18 05:59:00;;;;;;;77.93;29.70;;;;;;;16.11;88.71;93154.50;5111208;28;20364;-48
2021/09/18 06:01:25;;;;;;;62.50;25.77;;;;;;;16.28;87.70;93156.34;5111560;28;20049;-48
2021/09/18 06:03:51;;;;;;;57.10;28.42;;;;;;;16.46;87.45;93158.28;5111083;28;20034;-48
2021/09/18 06:06:16;;;;;;;68.18;33.20;;;;;;;16.63;87.18;93166.44;5110995;28;20039;-49
2021/09/18 06:08:41;;;;;;;66.63;32.80;;;;;;;16.64;87.23;93167.16;5111194;28;20412;-48
2021/09/18 06:11:07;;;;;;;108.15;38.30;;;;;;;16.57;86.83;93168.09;5111281;28;20428;-50
2021/09/18 06:13:33;;;;;;;90.35;25.52;;;;;;;16.40;87.83;93174.59;5111070;27;20481;-46
2021/09/18 06:15:58;;;;;;;68.63;25.20;;;;;;;16.41;88.33;93170.50;5101287;28;20868;-48
2021/09/18 06:18:24;;;;;;;70.57;26.67;;;;;;;16.57;88.35;93157.66;5090732;28;20504;-49
2021/09/18 06:20:50;;;;;;;67.40;30.10;;;;;;;16.65;87.94;93152.63;5090474;28;20035;-47
2021/09/18 06:23:16;;;;;;;71.05;24.58;;;;;;;16.79;87.94;93152.13;5090347;28;20050;-47
2021/09/18 06:25:42;;;;;;;62.10;28.67;;;;;;;16.87;87.42;93135.94;5090250;28;20019;-47
2021/09/18 06:28:07;;;;;;;64.57;28.70;;;;;;;17.11;87.60;93146.59;5090211;28;20039;-47
2021/09/18 06:30:33;;;;;;;61.05;22.48;;;;;;;17.30;86.79;93152.03;5090448;28;20020;-51
2021/09/18 06:32:58;;;;;;;63.95;28.05;;;;;;;17.53;84.87;93154.22;5088379;28;20564;-50
2021/09/18 06:35:24;;;;;;;61.70;28.13;;;;;;;17.79;84.54;93158.66;5090230;28;20119;-48
2021/09/18 06:37:49;;;;;;;57.53;23.23;;;;;;;18.06;82.37;93158.94;5092230;28;20052;-54
2021/09/18 06:40:17;;;;;;;54.35;23.60;;;;;;;18.36;80.55;93156.56;5107185;28;20035;-53
2021/09/18 06:42:43;;;;;;;64.68;23.33;;;;;;;18.64;79.68;93161.09;5089597;28;20461;-46
2021/09/18 06:45:10;;;;;;;57.65;23.02;;;;;;;18.80;79.24;93162.03;5089592;28;20042;-51
2021/09/18 06:47:35;;;;;;;70.90;22.95;;;;;;;19.06;78.92;93166.38;5089942;28;20032;-47
2021/09/18 06:50:02;;;;;;;62.22;26.45;;;;;;;19.80;77.05;93163.56;5089912;28;20115;-46
2021/09/18 06:52:28;;;;;;;1714.85;487.90;;;;;;;20.95;71.76;93157.19;5090013;28;20086;-48
2021/09/18 06:54:53;;;;;;;1509.60;856.28;;;;;;;21.80;67.07;93159.31;5089764;28;20040;-48
2021/09/18 06:57:18;;;;;;;1051.50;915.65;;;;;;;22.15;63.64;93166.59;5089466;28;20039;-48
2021/09/18 06:59:44;;;;;;;1118.22;999.22;;;;;;;22.13;63.20;93160.88;5090001;28;20032;-48
2021/09/18 07:02:10;;;;;;;1131.10;999.90;;;;;;;21.95;64.37;93166.38;5089667;28;20078;-51
2021/09/18 07:04:36;;;;;;;1169.95;999.90;;;;;;;21.75;64.67;93171.72;5089987;28;20024;-48
2021/09/18 07:07:02;;;;;;;1456.60;999.90;;;;;;;21.58;65.58;93169.50;5096008;28;20020;-49
2021/09/18 07:09:28;;;;;;;1469.28;999.90;;;;;;;;;;5096529;28;20726;-50
2021/09/18 07:11:53;;;;;;;1459.93;999.90;;;;;;;21.35;66.15;93163.41;5099746;28;20043;-46
2021/09/18 07:14:19;;;;;;;1483.15;999.90;;;;;;;21.50;66.58;93180.34;5096387;28;20023;-45
2021/09/18 07:16:44;;;;;;;1181.70;999.60;;;;;;;21.66;65.74;93160.72;5099749;28;20024;-47
2021/09/18 07:19:10;;;;;;;1665.57;999.90;;;;;;;23.09;62.78;93182.16;5097293;28;20019;-46
2021/09/18 07:21:35;;;;;;;1770.15;999.90;;;;;;;24.25;58.26;93182.06;5099312;28;20028;-48
2021/09/18 07:24:01;;;;;;;1788.10;999.90;;;;;;;24.86;55.54;93179.47;5098160;28;20024;-47
2021/09/18 07:26:27;;;;;;;1721.40;999.90;;;;;;;25.02;54.83;93183.59;5098069;28;20119;-47
2021/09/18 07:28:53;;;;;;;1364.10;999.90;;;;;;;26.24;51.56;93175.09;5099328;28;20043;-47
2021/09/18 07:31:18;;;;;;;1257.63;999.90;;;;;;;26.65;49.28;93174.22;5097854;28;20416;-46
2021/09/18 07:33:44;;;;;;;1250.65;999.90;;;;;;;26.23;49.51;93184.94;5096250;28;20027;-46
2021/09/18 07:36:09;;;;;;;1252.45;999.90;;;;;;;26.75;49.35;93183.78;5098631;28;20077;-46
2021/09/18 07:38:35;;;;;;;1196.15;999.90;;;;;;;27.50;47.90;93183.09;5096841;28;20027;-46
2021/09/18 07:41:00;;;;;;;1213.40;999.90;;;;;;;28.60;44.67;93187.31;5098616;28;20020;-49
2021/09/18 07:43:26;;;;;;;1656.13;999.90;;;;;;;26.38;48.24;93194.63;5096211;28;20028;-49
2021/09/18 07:45:51;;;;;;;1215.28;999.90;;;;;;;26.69;49.91;93183.56;5098670;28;20035;-48
2021/09/18 07:48:17;;;;;;;1223.50;999.90;;;;;;;27.15;48.56;93183.50;5095619;28;20016;-49
2021/09/18 07:50:42;;;;;;;1280.38;999.90;;;;;;;26.86;48.56;93185.53;5097977;28;20020;-47
2021/09/18 07:53:08;;;;;;;1552.82;999.90;;;;;;;27.98;44.33;93183.66;5098573;28;20019;-50
2021/09/18 07:55:34;;;;;;;1196.57;999.90;;;;;;;28.30;44.51;93175.94;5096519;28;20055;-49
2021/09/18 07:58:01;;;;;;;1500.25;999.90;;;;;;;27.33;46.05;93181.19;5097996;28;20023;-47
2021/09/18 08:00:27;;;;;;;1314.38;999.90;;;;;;;26.93;47.49;93180.75;5097008;28;20511;-47
2021/09/18 08:02:53;;;;;;;1234.03;999.90;;;;;;;27.53;46.26;93188.16;5098882;28;20028;-50
2021/09/18 08:05:19;;;;;;;1238.78;999.90;;;;;;;26.44;48.22;93187.06;5094208;28;20020;-49
2021/09/18 08:07:45;;;;;;;1254.43;999.90;;;;;;;25.54;50.88;93165.72;5096071;28;20028;-50
2021/09/18 08:10:13;;;;;;;1457.05;999.90;;;;;;;24.66;53.93;93179.41;5096879;28;20636;-48
2021/09/18 08:12:40;;;;;;;1399.30;999.90;;;;;;;23.98;55.48;93177.44;5095473;28;20501;-50
2021/09/18 08:15:06;;;;;;;1552.85;999.90;;;;;;;23.36;55.11;93141.78;5094273;28;20055;-49
2021/09/18 08:17:32;;;;;;;1769.28;999.90;;;;;;;23.32;56.49;93173.28;5096451;28;20101;-48
2021/09/18 08:19:57;;;;;;;1835.47;999.90;;;;;;;23.67;57.94;93183.22;5097788;28;20440;-48
2021/09/18 08:22:23;;;;;;;1774.93;999.90;;;;;;;23.93;56.48;93187.13;5098809;28;20054;-50
2021/09/18 08:24:48;;;;;;;1877.90;999.90;;;;;;;23.27;58.08;93194.22;5098169;28;20095;-48
2021/09/18 08:27:14;;;;;;;1887.50;999.90;;;;;;;22.57;60.06;93193.84;5098312;28;20020;-49
2021/09/18 08:29:39;;;;;;;1784.50;999.90;;;;;;;22.36;60.98;93203.47;5099173;28;20027;-48
2021/09/18 08:32:05;;;;;;;1690.95;999.90;;;;;;;22.06;62.08;93201.31;5098938;28;20047;-48
2021/09/18 08:34:30;;;;;;;1659.10;999.90;;;;;;;21.31;63.92;93191.28;5098327;28;20028;-48
2021/09/18 08:36:56;;;;;;;1118.47;997.80;;;;;;;20.96;65.89;93197.91;5098323;28;20048;-46
2021/09/18 08:39:21;;;;;;;1123.78;975.60;;;;;;;20.98;66.46;93186.09;5099161;28;20480;-52
2021/09/18 08:41:48;;;;;;;1406.20;999.90;;;;;;;20.56;67.21;93161.41;5097921;28;20023;-50
2021/09/18 08:44:16;;;;;;;1860.80;999.90;;;;;;;20.44;68.40;93175.53;5097231;28;20035;-47
2021/09/18 08:46:42;;;;;;;1999.90;999.90;;;;;;;20.09;70.70;93192.56;5096324;28;20157;-48
2021/09/18 08:49:09;;;;;;;1999.90;999.90;;;;;;;19.88;72.32;93183.66;5097871;28;20114;-46
2021/09/18 08:51:36;;;;;;;1999.90;999.90;;;;;;;20.35;71.66;93199.63;5098358;28;20019;-48
2021/09/18 08:54:02;;;;;;;1999.90;999.90;;;;;;;20.72;68.70;93168.63;5099657;28;20092;-49
2021/09/18 08:56:27;;;;;;;1716.32;999.90;;;;;;;21.18;68.45;93194.84;5098903;28;20024;-48
2021/09/18 08:58:53;;;;;;;1862.43;999.90;;;;;;;21.58;66.54;93194.03;5098853;28;20024;-49
2021/09/18 09:01:20;;;;;;;1183.22;999.90;;;;;;;22.64;62.44;93192.81;5097548;28;20019;-50
2021/09/18 09:03:58;;;;;;;1636.60;999.90;;;;;;;23.41;58.62;93173.69;5098054;28;20077;-51
2021/09/18 09:06:25;;;;;;;1679.55;999.90;;;;;;;23.88;59.91;93157.31;5097117;28;20050;-45
2021/09/18 09:08:56;;;;;;;1787.18;999.90;;;;;;;25.32;55.36;93178.31;5098364;28;20102;-49
2021/09/18 09:11:27;;;;;;;1484.28;999.90;;;;;;;26.65;50.34;93182.72;5098418;28;20024;-49
2021/09/18 09:14:08;;;;;;;1361.72;999.90;;;;;;;27.37;48.39;93187.72;5101960;28;20024;-47
2021/09/18 09:16:35;;;;;;;1241.07;999.90;;;;;;;28.06;46.77;93172.50;5099105;28;20404;-49
2021/09/18 09:19:14;;;;;;;1307.57;999.90;;;;;;;28.14;45.80;93181.94;5099499;28;20024;-50
2021/09/18 09:21:47;;;;;;;1641.00;999.90;;;;;;;26.26;48.66;93192.13;5104432;28;20023;-48
2021/09/18 09:24:17;;;;;;;1254.30;999.90;;;;;;;25.22;53.75;93187.16;5096086;28;20035;-50
2021/09/18 09:27:05;;;;;;;1300.03;999.90;;;;;;;25.79;52.40;93177.84;5097138;28;20523;-48
2021/09/18 09:29:47;;;;;;;1412.03;999.90;;;;;;;25.32;53.52;93186.78;5098732;28;20032;-50
2021/09/18 09:32:32;;;;;;;1406.90;999.90;;;;;;;25.27;54.26;93177.47;5096324;28;20031;-51
2021/09/18 09:35:00;;;;;;;1381.78;999.90;;;;;;;25.35;52.77;93171.34;5096760;28;20067;-52
2021/09/18 09:37:26;;;;;;;1396.57;999.90;;;;;;;25.24;53.78;93167.47;5102309;28;20043;-51
2021/09/18 09:39:57;;;;;;;1667.57;999.90;;;;;;;24.41;54.62;93166.47;5104557;28;20066;-53
2021/09/18 09:42:31;;;;;;;1828.70;999.90;;;;;;;23.89;57.45;93172.84;5095597;28;20024;-50
2021/09/18 09:45:20;;;;;;;1805.05;999.90;;;;;;;23.44;59.50;93173.13;5096172;28;20027;-49
2021/09/18 09:47:47;;;;;;;1498.22;999.90;;;;;;;22.92;60.93;93182.81;5095799;28;20664;-49
2021/09/18 09:50:13;;;;;;;1397.43;999.90;;;;;;;22.78;61.87;93192.72;5094111;28;20509;-50
2021/09/18 09:52:42;;;;;;;1401.85;999.90;;;;;;;22.66;61.25;93195.72;5096090;28;20540;-49
2021/09/18 09:55:11;;;;;;;1999.90;999.90;;;;;;;22.05;64.04;93203.38;5095538;28;20036;-48
2021/09/18 09:57:38;;;;;;;1804.13;999.90;;;;;;;21.02;66.55;93203.13;5095977;28;20034;-54
2021/09/18 10:00:08;;;;;;;1999.90;999.90;;;;;;;20.37;70.59;93207.41;5094888;28;20034;-49
2021/09/18 10:02:36;;;;;;;1999.90;999.90;;;;;;;20.37;71.49;93204.59;5095513;28;20016;-49
2021/09/18 10:05:07;;;;;;;1999.90;911.45;;;;;;;20.23;72.80;93203.81;5094868;28;20019;-52
2021/09/18 10:07:32;;;;;;;1999.90;748.55;;;;;;;19.78;74.20;93206.22;5098085;28;20525;-48
2021/09/18 10:09:59;;;;;;;994.63;299.90;;;;;;;19.51;75.20;93189.28;5097082;28;20094;-48
2021/09/18 10:12:26;;;;;;;792.72;250.38;;;;;;;19.74;75.71;93199.66;5098908;28;20038;-52
2021/09/18 10:14:53;;;;;;;116.97;53.17;;;;;;;19.57;76.42;93209.97;5096893;28;20042;-50
2021/09/18 10:17:19;;;;;;;122.07;42.15;;;;;;;19.49;76.95;93203.19;5099018;28;20021;-49
2021/09/18 10:25:16;;;;;;;65.05;40.15;;;;;;;20.05;74.69;93200.00;5099590;28;20141;-49
2021/09/18 10:28:09;;;;;;;92.97;42.13;;;;;;;20.03;75.03;93202.72;5096467;28;20523;-49
2021/09/18 10:30:47;;;;;;;117.55;63.58;;;;;;;20.26;74.55;93202.59;5095473;28;20020;-47
2021/09/18 10:33:27;;;;;;;347.17;109.63;;;;;;;20.02;73.35;93218.06;5096627;28;20030;-46
2021/09/18 10:36:02;;;;;;;134.00;71.80;;;;;;;20.05;73.91;93216.84;5099638;28;20028;-48
2021/09/18 10:38:30;;;;;;;1171.97;397.08;;;;;;;20.04;71.71;93212.56;5091635;28;20155;-48
2021/09/18 10:41:02;;;;;;;403.83;165.10;;;;;;;19.85;73.16;93222.03;5098520;28;20390;-47
2021/09/18 10:43:31;;;;;;;158.85;58.00;;;;;;;19.63;74.27;93229.19;5096771;27;20780;-49
2021/09/18 10:45:58;;;;;;;63.47;41.53;;;;;;;19.49;75.14;93231.19;5096861;28;20683;-49
2021/09/18 10:48:40;;;;;;;74.70;39.13;;;;;;;19.42;75.89;93216.09;5094536;27;20047;-48
2021/09/18 10:51:07;;;;;;;66.30;33.15;;;;;;;19.76;76.39;93233.38;5098858;27;20019;-49
2021/09/18 10:54:01;;;;;;;68.88;37.08;;;;;;;19.84;74.85;93250.69;5096976;28;20024;-47
2021/09/18 10:56:56;;;;;;;69.30;38.47;;;;;;;19.62;75.51;93262.06;5097054;28;20040;-48
2021/09/18 10:59:47;;;;;;;80.90;31.33;;;;;;;19.15;76.44;93271.13;5099973;28;20031;-49
2021/09/18 11:02:32;;;;;;;96.00;32.35;;;;;;;18.66;78.62;93278.66;5099270;28;20027;-48
2021/09/18 11:05:10;;;;;;;609.35;76.10;;;;;;;18.18;80.48;93293.09;5103348;28;20044;-48
2021/09/18 11:07:56;;;;;;;389.05;55.95;;;;;;;17.78;82.59;93310.06;5099282;28;20046;-47
2021/09/18 11:10:21;;;;;;;77.88;35.20;;;;;;;17.47;85.16;93314.97;5099244;27;20061;-47
2021/09/18 11:13:05;;;;;;;68.95;23.70;;;;;;;17.24;85.28;93312.72;5099157;28;20584;-47
2021/09/18 11:15:43;;;;;;;1999.90;169.23;;;;;;;16.95;83.13;93315.69;5098631;28;20035;-48
2021/09/18 11:18:30;;;;;;;101.90;31.08;;;;;;;17.02;82.45;93317.53;5099409;28;20093;-46
2021/09/18 11:21:09;;;;;;;597.60;62.53;;;;;;;16.81;82.82;93311.91;5097776;28;20062;-45
2021/09/18 11:23:44;;;;;;;57.97;29.67;;;;;;;16.89;83.21;93304.09;5097946;28;20024;-47
2021/09/18 11:26:30;;;;;;;58.10;21.70;;;;;;;17.16;83.24;93296.19;5094420;28;20042;-46
2021/09/18 11:28:56;;;;;;;66.18;27.70;;;;;;;17.26;82.36;93296.16;5093654;28;20055;-46
2021/09/18 11:31:21;;;;;;;52.25;22.52;;;;;;;17.25;82.47;93258.41;5098501;28;20068;-47
2021/09/18 11:33:50;;;;;;;61.72;24.27;;;;;;;17.57;81.66;93282.13;5100302;28;20027;-44
2021/09/18 11:36:17;;;;;;;53.58;22.67;;;;;;;17.69;80.93;93283.69;5100474;28;20699;-45
2021/09/18 11:38:44;;;;;;;48.58;18.55;;;;;;;17.74;78.80;93274.22;5100810;28;20106;-45
2021/09/18 11:41:15;;;;;;;58.55;26.23;;;;;;;17.83;79.28;93267.84;5095870;28;20020;-46
2021/09/18 11:43:43;;;;;;;51.65;24.67;;;;;;;17.85;79.02;93267.22;5099667;27;20408;-45
2021/09/18 11:46:10;;;;;;;53.42;23.75;;;;;;;17.84;78.57;93249.75;5093798;28;20043;-45
2021/09/18 11:48:36;;;;;;;57.05;24.65;;;;;;;17.88;78.50;93266.75;5093944;28;20493;-47
2021/09/18 11:51:03;;;;;;;56.60;24.80;;;;;;;17.92;77.95;93264.22;5094402;28;20031;-45
2021/09/18 11:53:29;;;;;;;59.92;23.08;;;;;;;18.01;77.98;93257.09;5100703;28;20814;-45
2021/09/18 11:55:56;;;;;;;70.57;28.73;;;;;;;17.98;76.67;93242.25;5092684;28;20022;-47
2021/09/18 11:58:29;;;;;;;63.17;29.45;;;;;;;17.92;78.17;93241.88;5092380;28;20020;-45
2021/09/18 12:01:02;;;;;;;54.92;24.23;;;;;;;18.02;77.89;93248.09;5097847;28;20023;-45
2021/09/18 12:03:34;;;;;;;60.45;26.48;;;;;;;17.80;76.71;93263.44;5099277;28;20051;-47
2021/09/18 12:06:03;;;;;;;55.55;21.83;;;;;;;17.65;77.26;93266.66;5097544;28;20023;-46
2021/09/18 12:08:31;;;;;;;55.70;20.45;;;;;;;17.81;77.27;93250.94;5097234;28;20085;-47
2021/09/18 12:11:01;;;;;;;70.28;30.08;;;;;;;17.91;77.63;93253.66;5098784;28;20160;-48
2021/09/18 12:13:27;;;;;;;63.80;24.77;;;;;;;17.91;77.54;93257.16;5098500;28;20016;-45
2021/09/18 12:15:53;;;;;;;50.40;20.80;;;;;;;17.98;76.02;93263.88;5098626;28;20038;-47
2021/09/18 12:18:24;;;;;;;95.78;25.13;;;;;;;18.07;73.31;93266.59;5098072;28;20825;-46
2021/09/18 12:20:56;;;;;;;65.50;24.30;;;;;;;18.17;76.93;93275.59;5106965;28;20416;-46
2021/09/18 12:23:23;;;;;;;55.28;26.48;;;;;;;18.51;76.08;93274.25;5107476;28;20038;-45
2021/09/18 12:26:04;;;;;;;60.88;26.48;;;;;;;19.06;74.30;93269.91;5108845;28;20032;-45
2021/09/18 12:28:31;;;;;;;54.17;23.10;;;;;;;19.65;73.10;93260.09;5108711;28;20050;-45
2021/09/18 12:30:57;;;;;;;1999.90;959.55;;;;;;;19.90;68.18;93257.34;5108604;28;20032;-45
2021/09/18 12:33:33;;;;;;;1947.22;589.85;;;;;;;20.10;68.97;93254.94;5108288;28;20032;-46
2021/09/18 12:36:07;;;;;;;715.58;254.52;;;;;;;20.18;68.45;93255.41;5108249;28;20032;-45
2021/09/18 12:38:35;;;;;;;1999.90;879.55;;;;;;;20.31;68.85;93261.06;5108406;28;20035;-47
2021/09/18 12:41:03;;;;;;;354.33;134.23;;;;;;;20.54;69.68;93262.28;5098022;28;20512;-47
2021/09/18 12:43:29;;;;;;;1999.90;999.90;;;;;;;20.42;65.91;93254.66;5097014;28;20630;-45
2021/09/18 12:46:04;;;;;;;1999.90;999.90;;;;;;;20.54;67.36;93265.09;5093401;28;20095;-47
2021/09/18 12:48:29;;;;;;;1999.90;999.90;;;;;;;20.30;67.31;93253.28;5100913;28;20027;-46
2021/09/18 12:51:16;;;;;;;1999.90;999.90;;;;;;;20.52;68.52;93271.31;5089899;28;20797;-46
2021/09/18 12:53:53;;;;;;;1999.90;999.90;;;;;;;20.49;67.38;93263.44;5108318;28;20114;-46
2021/09/18 12:56:32;;;;;;;1999.90;999.90;;;;;;;19.67;70.03;93263.00;5091993;28;20428;-47
2021/09/18 12:59:03;;;;;;;;;;;;;;;19.62;70.77;93273.25;5090693;28;20035;-45
2021/09/18 13:01:38;;;;;;;1999.90;891.88;;;;;;;19.31;69.35;93261.63;5090454;28;19919;-45
2021/09/18 13:04:08;;;;;;;179.20;64.50;;;;;;;18.75;72.26;93247.75;5108183;28;20062;-45
2021/09/18 13:06:35;;;;;;;75.47;35.25;;;;;;;18.75;73.19;93247.75;5103623;28;20561;-47
2021/09/18 13:09:06;;;;;;;315.67;51.97;;;;;;;18.54;72.33;93261.84;5104485;28;20173;-48
2021/09/18 13:11:45;;;;;;;113.82;41.22;;;;;;;18.12;73.72;93239.63;5107879;28;20062;-46
2021/09/18 13:14:20;;;;;;;64.00;28.83;;;;;;;17.94;75.90;93255.97;5108551;28;20030;-47
2021/09/18 13:17:09;;;;;;;88.00;30.92;;;;;;;18.12;75.75;93250.81;5092459;28;20064;-48
2021/09/18 13:19:47;;;;;;;68.53;32.22;;;;;;;18.08;75.90;93251.28;5087290;28;20035;-46
2021/09/18 13:22:13;;;;;;;68.72;34.40;;;;;;;18.11;75.46;93250.06;5088076;28;20152;-47
2021/09/18 13:24:39;;;;;;;66.43;23.35;;;;;;;18.12;77.27;93253.59;5087580;28;20070;-48
2021/09/18 13:27:05;;;;;;;58.45;28.23;;;;;;;18.25;74.75;93252.28;5086569;28;20039;-45
2021/09/18 13:29:31;;;;;;;136.85;31.40;;;;;;;18.02;75.56;93247.38;5086197;28;20066;-46
2021/09/18 13:31:56;;;;;;;72.75;31.83;;;;;;;17.99;76.01;93252.13;5086227;28;20673;-45
2021/09/18 13:34:22;;;;;;;65.95;22.58;;;;;;;18.11;76.68;93249.34;5086026;28;20012;-48
2021/09/18 13:36:47;;;;;;;68.43;21.90;;;;;;;18.51;74.12;93251.16;5086255;28;20105;-49
2021/09/18 13:39:13;;;;;;;78.70;32.45;;;;;;;18.63;73.55;93247.03;5086710;28;20676;-46
2021/09/18 13:41:38;;;;;;;73.28;33.55;;;;;;;18.54;71.86;93244.34;5098222;28;20032;-46
2021/09/18 13:44:05;;;;;;;98.13;30.08;;;;;;;18.62;74.43;93256.03;5092509;28;20028;-46
2021/09/18 13:46:31;;;;;;;64.03;28.33;;;;;;;18.59;74.22;93249.59;5087903;28;20036;-46
2021/09/18 13:48:56;;;;;;;57.95;21.05;;;;;;;18.69;74.54;93244.59;5087433;28;20028;-48
2021/09/18 13:51:22;;;;;;;61.88;30.40;;;;;;;18.81;73.27;93244.63;5100586;28;20142;-49
2021/09/18 13:53:47;;;;;;;68.53;32.20;;;;;;;18.96;73.41;93246.19;5099709;28;20038;-50
2021/09/18 13:56:14;;;;;;;69.28;30.00;;;;;;;19.04;72.45;93239.00;5111364;28;20039;-49
2021/09/18 13:58:40;;;;;;;97.43;39.80;;;;;;;19.14;71.30;93250.06;5111623;28;20465;-49
2021/09/18 14:01:06;;;;;;;68.32;31.67;;;;;;;19.22;71.51;93245.69;5111711;27;20028;-46
2021/09/18 14:03:34;;;;;;;517.28;196.43;;;;;;;19.42;70.37;93252.50;5111788;28;20027;-47
2021/09/18 14:06:00;;;;;;;1999.90;685.50;;;;;;;19.58;69.41;93236.63;5110419;28;20633;-46
2021/09/18 14:08:25;;;;;;;1999.90;999.90;;;;;;;19.40;66.94;93251.66;5110095;28;20055;-46
2021/09/18 14:10:51;;;;;;;1999.90;999.90;;;;;;;19.44;68.81;93240.69;5111069;28;20031;-45
2021/09/18 14:13:17;;;;;;;1999.90;999.90;;;;;;;19.45;68.08;93245.66;5111541;28;20087;-46
2021/09/18 14:15:42;;;;;;;1999.90;999.90;;;;;;;19.17;68.15;93241.19;5108817;28;20096;-46
2021/09/18 14:18:09;;;;;;;1999.90;524.03;;;;;;;18.48;69.30;93225.13;5111039;28;20046;-46
2021/09/18 14:20:36;;;;;;;193.75;68.03;;;;;;;18.12;71.65;93218.03;5110716;27;20492;-45
2021/09/18 14:23:03;;;;;;;82.22;30.52;;;;;;;18.08;72.79;93237.31;5110777;28;20031;-46
2021/09/18 14:25:29;;;;;;;65.95;35.15;;;;;;;17.97;73.17;93232.44;5111167;28;20480;-46
2021/09/18 14:27:54;;;;;;;67.30;24.02;;;;;;;17.69;72.37;93230.63;5111185;28;20031;-45
2021/09/18 14:30:20;;;;;;;63.72;31.63;;;;;;;17.72;73.86;93234.25;5111067;28;20501;-46
2021/09/18 14:32:46;;;;;;;64.50;26.75;;;;;;;17.63;71.94;93238.59;5110836;28;20515;-46
2021/09/18 14:35:11;;;;;;;69.78;23.38;;;;;;;17.47;73.54;93240.34;5110730;27;20568;-46
2021/09/18 14:37:37;;;;;;;65.60;28.50;;;;;;;17.30;74.30;93249.69;5110518;28;20085;-46
2021/09/18 14:40:03;;;;;;;73.30;35.47;;;;;;;17.26;74.70;93237.56;5109202;28;20027;-47
2021/09/18 14:42:29;;;;;;;61.20;21.10;;;;;;;17.36;75.67;93243.78;5090351;28;20016;-46
2021/09/18 14:44:54;;;;;;;131.98;28.90;;;;;;;17.25;73.52;93241.66;5090247;28;20591;-53
2021/09/18 14:47:20;;;;;;;113.05;25.42;;;;;;;17.38;73.09;93236.28;5102564;28;20526;-49
2021/09/18 14:49:45;;;;;;;66.65;36.17;;;;;;;17.60;72.51;93239.06;5110409;28;20034;-47
2021/09/18 14:52:11;;;;;;;109.30;81.97;;;;;;;17.58;71.46;93247.31;5110891;27;20023;-49
2021/09/18 14:54:36;;;;;;;182.73;51.47;;;;;;;17.51;71.50;93249.00;5109580;28;20034;-47
2021/09/18 14:57:02;;;;;;;239.52;156.93;;;;;;;17.46;71.20;93250.03;5109710;27;20027;-47
2021/09/18 14:59:27;;;;;;;1451.63;149.60;;;;;;;17.20;70.68;93243.44;5109044;28;20028;-45
2021/09/18 15:01:53;;;;;;;73.57;30.73;;;;;;;17.17;71.29;93246.72;5108507;27;20092;-48
2021/09/18 15:04:19;;;;;;;138.63;36.03;;;;;;;17.16;71.76;93245.97;5108059;28;20015;-47
2021/09/18 15:06:44;;;;;;;59.20;34.67;;;;;;;17.00;72.44;93244.88;5108464;28;20024;-46
2021/09/18 15:09:10;;;;;;;138.77;36.28;;;;;;;16.97;72.38;93250.94;5108357;28;20032;-47
2021/09/18 15:11:35;;;;;;;114.30;27.85;;;;;;;16.94;71.89;93250.06;5108172;28;20031;-47
2021/09/18 15:14:01;;;;;;;91.63;39.15;;;;;;;17.00;71.79;93246.97;5108798;27;20019;-46
2021/09/18 15:16:26;;;;;;;81.97;33.92;;;;;;;16.93;71.49;93247.88;5093926;28;20085;-48
2021/09/18 15:18:52;;;;;;;119.22;37.83;;;;;;;16.97;70.37;93257.25;5089233;28;20051;-46
2021/09/18 15:21:17;;;;;;;65.18;30.73;;;;;;;16.97;71.39;93259.31;5089256;28;20024;-48
2021/09/18 15:23:43;;;;;;;57.70;29.20;;;;;;;16.97;71.20;93257.25;5089159;28;20051;-46
2021/09/18 15:26:08;;;;;;;67.68;32.95;;;;;;;16.94;72.10;93260.47;5089158;28;20467;-47
2021/09/18 15:28:34;;;;;;;111.95;27.92;;;;;;;16.98;71.69;93258.69;5089023;28;20024;-47
2021/09/18 15:31:00;;;;;;;497.50;57.03;;;;;;;16.91;70.41;93264.47;5089246;28;20110;-46
2021/09/18 15:33:25;;;;;;;59.30;39.50;;;;;;;16.98;71.66;93258.69;5089651;28;20057;-46
2021/09/18 15:35:53;;;;;;;61.70;31.00;;;;;;;17.03;71.37;93252.06;5089065;28;20401;-47
2021/09/18 15:38:18;;;;;;;109.00;40.60;;;;;;;16.93;70.48;93261.81;5088839;28;20134;-46
2021/09/18 15:40:44;;;;;;;101.82;36.78;;;;;;;16.84;70.92;93248.66;5096717;28;20027;-47
2021/09/18 15:43:10;;;;;;;138.55;44.45;;;;;;;16.74;70.95;93247.97;5109003;28;20020;-46
2021/09/18 15:45:36;;;;;;;127.78;37.38;;;;;;;16.43;71.52;93242.34;5109494;28;20023;-47
2021/09/18 15:48:01;;;;;;;290.30;43.42;;;;;;;16.07;72.95;93232.19;5109395;28;20436;-46
2021/09/18 15:50:27;;;;;;;141.65;43.50;;;;;;;15.87;74.25;93241.91;5108055;28;20467;-47
2021/09/18 15:52:52;;;;;;;560.15;75.57;;;;;;;15.76;74.59;93242.50;5090068;27;20043;-45
2021/09/18 15:55:18;;;;;;;192.50;42.53;;;;;;;15.75;75.07;93236.22;5088455;28;20331;-46
2021/09/18 15:57:44;;;;;;;158.52;39.17;;;;;;;15.67;75.16;93238.41;5089259;28;20028;-46
2021/09/18 16:00:09;;;;;;;154.27;41.30;;;;;;;15.62;75.41;93244.25;5088969;28;20047;-48
2021/09/18 16:02:35;;;;;;;362.40;64.05;;;;;;;15.55;75.14;93245.16;5088817;28;20024;-46
2021/09/18 16:05:00;;;;;;;574.05;69.18;;;;;;;15.37;75.29;93238.25;5106770;28;20493;-48
2021/09/18 16:07:26;;;;;;;1301.03;120.40;;;;;;;15.23;75.89;93243.50;5108860;28;20035;-46
2021/09/18 16:09:51;;;;;;;87.65;36.33;;;;;;;15.20;76.36;93255.81;5108515;28;20513;-47
2021/09/18 16:12:17;;;;;;;351.50;55.85;;;;;;;15.18;76.69;93250.09;5108929;28;20545;-48
2021/09/18 16:14:42;;;;;;;84.63;41.10;;;;;;;15.17;77.02;93251.41;5106716;28;20734;-48
2021/09/18 16:17:08;;;;;;;65.22;31.13;;;;;;;15.08;76.50;93255.63;5107858;28;20075;-47
2021/09/18 16:19:33;;;;;;;70.00;36.53;;;;;;;15.02;76.33;93257.97;5108742;28;20494;-47
2021/09/18 16:21:59;;;;;;;126.13;42.47;;;;;;;14.96;75.78;93260.31;5108434;28;20026;-46
2021/09/18 16:24:24;;;;;;;79.28;43.53;;;;;;;14.84;76.39;93258.66;5108928;28;20039;-47
2021/09/18 16:26:50;;;;;;;73.80;39.55;;;;;;;15.02;76.52;93257.97;5108870;28;20023;-47
2021/09/18 16:29:17;;;;;;;75.50;40.53;;;;;;;15.07;76.74;93264.56;5108621;28;20046;-48
2021/09/18 16:31:43;;;;;;;86.95;39.25;;;;;;;15.10;75.26;93280.81;5108416;28;20455;-47
2021/09/18 16:34:09;;;;;;;83.65;43.45;;;;;;;15.14;75.32;93269.97;5108324;28;20027;-48
2021/09/18 16:36:34;;;;;;;96.30;37.67;;;;;;;15.08;74.73;93279.94;5108104;28;20101;-48
2021/09/18 16:39:00;;;;;;;84.90;33.78;;;;;;;14.78;75.45;93270.06;5108322;28;20031;-47
2021/09/18 16:41:26;;;;;;;89.20;39.97;;;;;;;14.84;76.67;93276.06;5095206;28;20060;-47
2021/09/18 16:43:51;;;;;;;81.32;40.38;;;;;;;14.76;76.81;93263.59;5088419;28;20327;-48
2021/09/18 16:46:17;;;;;;;113.05;77.10;;;;;;;14.70;76.44;93269.44;5088195;28;20028;-50
2021/09/18 16:48:43;;;;;;;70.70;36.55;;;;;;;14.89;77.35;93288.22;5087793;28;20055;-47
2021/09/18 16:51:10;;;;;;;71.35;37.58;;;;;;;14.96;76.11;93284.59;5088076;28;20032;-49
2021/09/18 16:53:36;;;;;;;67.97;36.47;;;;;;;14.98;76.91;93291.03;5088056;28;20097;-48